Terminal Aerodrome Forecast
Issued by NWS

Home | Current Version | Previous Version | Text Only | Print | Product List | Glossary On
Versions: 1 2 3 4 5 6 7 8 9 10 11 12 13
663
FTUS42 TJSJ 282339
TAFIST
TAF
TIST 282339Z 2900/2924 07014KT P6SM VCSH SCT025 SCT050 SCT080
      TEMPO 2900/2904 08022G30KT 5SM TSRA BKN025CB BKN050
     FM290430 08018G28KT P6SM VCTS SCT022CB SCT040 BKN100
     FM291330 11022G32KT P6SM VCSH SCT025 BKN050 BKN100=

USA.gov is the U.S. government's official web portal to all federal, state and local government web resources and services.